Time,TemperatureF,DewpointF,PressureIn,WindDirection,WindDirectionDegrees,WindSpeedMPH,WindSpeedGustMPH,Humidity,HourlyPrecipIn,Conditions,Clouds,dailyrainin,SolarRadiationWatts/m^2,SoftwareType,DateUTC
2013-03-03 00:00:00,30.3,22.7,30.13,ESE,112,3.0,4.0,73,0.00,,,-99.99,0,WeatherLink 5.7,2013-03-03 07:00:00,
2013-03-03 00:10:00,30.3,22.7,30.13,East,90,2.0,3.0,73,0.00,,,-99.99,0,WeatherLink 5.7,2013-03-03 07:10:00,
2013-03-03 00:20:00,30.0,22.7,30.09,East,90,2.0,4.0,74,0.00,,,-99.99,0,WeatherLink 5.7,2013-03-03 07:20:00,
2013-03-03 00:25:00,29.8,22.5,30.09,ESE,112,2.0,4.0,74,0.00,,,-99.99,0,WeatherLink 5.7,2013-03-03 07:25:00,
2013-03-03 00:30:00,29.7,22.7,30.09,ESE,112,3.0,4.0,75,0.00,,,-99.99,0,WeatherLink 5.7,2013-03-03 07:30:00,
2013-03-03 00:40:00,29.4,22.5,30.08,ESE,112,2.0,4.0,75,0.00,,,-99.99,0,WeatherLink 5.7,2013-03-03 07:40:00,
2013-03-03 00:50:00,29.2,22.6,30.09,East,90,3.0,5.0,76,0.00,,,-99.99,0,WeatherLink 5.7,2013-03-03 07:50:00,
2013-03-03 00:55:00,29.1,22.5,30.09,ESE,112,2.0,4.0,76,0.00,,,-99.99,0,WeatherLink 5.7,2013-03-03 07:55:00,
2013-03-03 01:00:00,29.0,22.7,30.09,East,90,2.0,5.0,77,0.00,,,-99.99,0,WeatherLink 5.7,2013-03-03 08:00:00,
2013-03-03 01:10:00,29.0,22.4,30.08,East,90,3.0,4.0,76,0.00,,,-99.99,0,WeatherLink 5.7,2013-03-03 08:10:00,
2013-03-03 01:15:00,29.1,22.8,30.08,East,90,2.0,4.0,77,0.00,,,-99.99,0,WeatherLink 5.7,2013-03-03 08:15:00,
2013-03-03 01:20:00,29.1,22.5,30.08,East,90,1.0,3.0,76,0.00,,,-99.99,0,WeatherLink 5.7,2013-03-03 08:20:00,
2013-03-03 01:30:00,28.8,22.2,30.08,East,90,2.0,4.0,76,0.00,,,-99.99,0,WeatherLink 5.7,2013-03-03 08:30:00,
2013-03-03 01:35:00,28.8,22.5,30.07,East,90,2.0,3.0,77,0.00,,,-99.99,0,WeatherLink 5.7,2013-03-03 08:35:00,
2013-03-03 01:40:00,28.7,22.4,30.07,East,90,2.0,3.0,77,0.00,,,-99.99,0,WeatherLink 5.7,2013-03-03 08:40:00,
2013-03-03 01:50:00,28.5,22.2,30.07,East,90,2.0,4.0,77,0.00,,,-99.99,0,WeatherLink 5.7,2013-03-03 08:50:00,
2013-03-03 01:55:00,28.4,22.4,30.07,East,90,1.0,3.0,78,0.00,,,-99.99,0,WeatherLink 5.7,2013-03-03 08:55:00,
2013-03-03 02:00:00,28.2,22.2,30.07,ESE,112,2.0,5.0,78,0.00,,,-99.99,0,WeatherLink 5.7,2013-03-03 09:00:00,
2013-03-03 02:10:00,28.4,22.4,30.06,East,90,3.0,5.0,78,0.00,,,-99.99,0,WeatherLink 5.7,2013-03-03 09:10:00,
2013-03-03 02:15:00,28.4,22.4,30.06,East,90,2.0,3.0,78,0.00,,,-99.99,0,WeatherLink 5.7,2013-03-03 09:15:00,
2013-03-03 02:20:00,28.2,22.2,30.06,East,90,2.0,3.0,78,0.00,,,-99.99,0,WeatherLink 5.7,2013-03-03 09:20:00,
2013-03-03 02:30:00,28.1,22.1,30.06,East,90,0.0,2.0,78,0.00,,,-99.99,0,WeatherLink 5.7,2013-03-03 09:30:00,
2013-03-03 02:35:00,27.9,21.9,30.05,North,-999,0.0,0.0,78,0.00,,,-99.99,0,WeatherLink 5.7,2013-03-03 09:35:00,
2013-03-03 02:40:00,28.1,22.1,30.05,East,90,1.0,4.0,78,0.00,,,-99.99,0,WeatherLink 5.7,2013-03-03 09:40:00,
2013-03-03 02:50:00,28.1,22.1,30.04,East,90,1.0,3.0,78,0.00,,,-99.99,0,WeatherLink 5.7,2013-03-03 09:50:00,
2013-03-03 02:55:00,28.4,22.4,30.04,East,90,1.0,3.0,78,0.00,,,-99.99,0,WeatherLink 5.7,2013-03-03 09:55:00,
2013-03-03 03:00:00,28.5,22.2,30.04,East,90,0.0,3.0,77,0.00,,,-99.99,0,WeatherLink 5.7,2013-03-03 10:00:00,
2013-03-03 03:10:00,28.7,22.1,30.02,East,90,1.0,3.0,76,0.00,,,-99.99,0,WeatherLink 5.7,2013-03-03 10:10:00,
2013-03-03 03:20:00,28.4,21.8,30.02,East,90,0.0,2.0,76,0.00,,,-99.99,0,WeatherLink 5.7,2013-03-03 10:20:00,
2013-03-03 03:25:00,28.2,21.6,30.02,North,-999,0.0,0.0,76,0.00,,,-99.99,0,WeatherLink 5.7,2013-03-03 10:25:00,
2013-03-03 03:30:00,28.2,21.9,30.02,East,90,1.0,3.0,77,0.00,,,-99.99,0,WeatherLink 5.7,2013-03-03 10:30:00,
2013-03-03 03:40:00,28.1,21.8,30.04,East,90,1.0,4.0,77,0.00,,,-99.99,0,WeatherLink 5.7,2013-03-03 10:40:00,
2013-03-03 03:50:00,27.9,21.6,30.02,East,90,1.0,4.0,77,0.00,,,-99.99,0,WeatherLink 5.7,2013-03-03 10:50:00,
2013-03-03 04:00:00,27.9,21.9,30.02,East,90,1.0,4.0,78,0.00,,,-99.99,0,WeatherLink 5.7,2013-03-03 11:00:00,
2013-03-03 04:10:00,27.9,21.9,30.02,East,90,0.0,2.0,78,0.00,,,-99.99,0,WeatherLink 5.7,2013-03-03 11:10:00,
2013-03-03 04:15:00,27.9,21.9,30.02,East,90,0.0,2.0,78,0.00,,,-99.99,0,WeatherLink 5.7,2013-03-03 11:15:00,
2013-03-03 04:25:00,27.9,21.9,30.02,East,90,1.0,2.0,78,0.00,,,-99.99,0,WeatherLink 5.7,2013-03-03 11:25:00,
2013-03-03 04:35:00,27.8,21.8,30.01,East,90,1.0,3.0,78,0.00,,,-99.99,0,WeatherLink 5.7,2013-03-03 11:35:00,
2013-03-03 04:45:00,27.9,21.9,30.01,North,-999,0.0,0.0,78,0.00,,,-99.99,0,WeatherLink 5.7,2013-03-03 11:45:00,
2013-03-03 04:50:00,27.9,21.9,30.01,North,-999,0.0,0.0,78,0.00,,,-99.99,0,WeatherLink 5.7,2013-03-03 11:50:00,
2013-03-03 05:00:00,27.8,21.8,30.01,North,-999,0.0,0.0,78,0.00,,,-99.99,0,WeatherLink 5.7,2013-03-03 12:00:00,
2013-03-03 05:10:00,27.9,21.9,30.01,East,90,1.0,2.0,78,0.00,,,-99.99,0,WeatherLink 5.7,2013-03-03 12:10:00,
2013-03-03 05:15:00,27.9,21.9,30.01,East,90,1.0,4.0,78,0.00,,,-99.99,0,WeatherLink 5.7,2013-03-03 12:15:00,
2013-03-03 05:25:00,27.9,21.9,30.02,ENE,67,1.0,3.0,78,0.00,,,-99.99,0,WeatherLink 5.7,2013-03-03 12:25:00,
2013-03-03 05:30:00,27.9,21.9,30.02,East,90,2.0,4.0,78,0.00,,,-99.99,0,WeatherLink 5.7,2013-03-03 12:30:00,
2013-03-03 05:40:00,27.8,21.8,30.03,East,90,0.0,3.0,78,0.00,,,-99.99,0,WeatherLink 5.7,2013-03-03 12:40:00,
2013-03-03 05:45:00,27.8,21.8,30.03,North,-999,0.0,0.0,78,0.00,,,-99.99,0,WeatherLink 5.7,2013-03-03 12:45:00,
2013-03-03 05:55:00,27.6,21.6,30.02,East,90,2.0,5.0,78,0.00,,,-99.99,0,WeatherLink 5.7,2013-03-03 12:55:00,
2013-03-03 06:00:00,27.6,21.6,30.02,East,90,1.0,3.0,78,0.00,,,-99.99,0,WeatherLink 5.7,2013-03-03 13:00:00,
2013-03-03 06:10:00,27.6,21.6,30.02,North,-999,0.0,0.0,78,0.00,,,-99.99,0,WeatherLink 5.7,2013-03-03 13:10:00,
2013-03-03 06:20:00,27.6,21.9,30.04,North,-999,0.0,0.0,79,0.00,,,-99.99,0,WeatherLink 5.7,2013-03-03 13:20:00,
2013-03-03 06:25:00,27.6,21.9,30.04,North,-999,0.0,0.0,79,0.00,,,-99.99,0,WeatherLink 5.7,2013-03-03 13:25:00,
2013-03-03 06:35:00,27.5,21.8,30.03,North,-999,0.0,0.0,79,0.00,,,-99.99,0,WeatherLink 5.7,2013-03-03 13:35:00,
2013-03-03 06:45:00,27.6,21.9,30.03,ENE,67,1.0,3.0,79,0.00,,,-99.99,0,WeatherLink 5.7,2013-03-03 13:45:00,
2013-03-03 06:50:00,27.6,21.9,30.03,ENE,67,0.0,3.0,79,0.00,,,-99.99,0,WeatherLink 5.7,2013-03-03 13:50:00,
2013-03-03 07:00:00,27.6,21.9,30.03,North,-999,0.0,0.0,79,0.00,,,-99.99,11,WeatherLink 5.7,2013-03-03 14:00:00,
2013-03-03 07:10:00,27.6,21.9,30.03,North,-999,0.0,0.0,79,0.00,,,-99.99,33,WeatherLink 5.7,2013-03-03 14:10:00,
2013-03-03 07:20:00,27.8,22.1,30.04,North,-999,0.0,0.0,79,0.00,,,-99.99,45,WeatherLink 5.7,2013-03-03 14:20:00,
2013-03-03 07:30:00,28.1,22.1,30.04,ENE,67,0.0,1.0,78,0.00,,,-99.99,32,WeatherLink 5.7,2013-03-03 14:30:00,
2013-03-03 07:35:00,28.2,22.2,30.04,North,-999,0.0,0.0,78,0.00,,,-99.99,55,WeatherLink 5.7,2013-03-03 14:35:00,
2013-03-03 07:45:00,28.4,22.4,30.04,ENE,67,0.0,2.0,78,0.00,,,-99.99,71,WeatherLink 5.7,2013-03-03 14:45:00,
2013-03-03 07:55:00,28.8,22.8,30.04,ENE,67,0.0,2.0,78,0.00,,,-99.99,177,WeatherLink 5.7,2013-03-03 14:55:00,
2013-03-03 08:00:00,29.2,22.9,30.04,ENE,67,0.0,2.0,77,0.00,,,-99.99,139,WeatherLink 5.7,2013-03-03 15:00:00,
2013-03-03 08:10:00,29.5,22.9,30.04,North,-999,0.0,0.0,76,0.00,,,-99.99,143,WeatherLink 5.7,2013-03-03 15:10:00,
2013-03-03 08:15:00,29.7,23.1,30.04,East,90,1.0,2.0,76,0.00,,,-99.99,121,WeatherLink 5.7,2013-03-03 15:15:00,
2013-03-03 08:25:00,30.0,23.0,30.05,East,90,0.0,2.0,75,0.00,,,-99.99,131,WeatherLink 5.7,2013-03-03 15:25:00,
2013-03-03 08:30:00,30.0,23.0,30.05,East,90,1.0,2.0,75,0.00,,,-99.99,136,WeatherLink 5.7,2013-03-03 15:30:00,
2013-03-03 08:40:00,30.4,23.4,30.03,East,90,1.0,2.0,75,0.00,,,-99.99,179,WeatherLink 5.7,2013-03-03 15:40:00,
2013-03-03 08:45:00,30.9,23.9,30.03,East,90,1.0,3.0,75,0.00,,,-99.99,243,WeatherLink 5.7,2013-03-03 15:45:00,
2013-03-03 08:50:00,31.3,23.6,30.02,East,90,1.0,4.0,73,0.00,,,-99.99,255,WeatherLink 5.7,2013-03-03 15:50:00,
2013-03-03 09:00:00,32.1,23.8,30.02,North,-999,0.0,0.0,71,0.00,,,-99.99,145,WeatherLink 5.7,2013-03-03 16:00:00,
2013-03-03 09:10:00,32.2,23.2,30.01,North,-999,0.0,0.0,69,0.00,,,-99.99,103,WeatherLink 5.7,2013-03-03 16:10:00,
2013-03-03 09:15:00,32.4,23.7,30.01,North,-999,0.0,0.0,70,0.00,,,-99.99,128,WeatherLink 5.7,2013-03-03 16:15:00,
2013-03-03 09:20:00,32.5,23.5,30.01,North,-999,0.0,0.0,69,0.00,,,-99.99,154,WeatherLink 5.7,2013-03-03 16:20:00,
2013-03-03 09:25:00,32.8,23.4,30.01,ESE,112,0.0,1.0,68,0.00,,,-99.99,178,WeatherLink 5.7,2013-03-03 16:25:00,
2013-03-03 09:35:00,33.2,23.8,30.00,North,-999,0.0,0.0,68,0.00,,,-99.99,240,WeatherLink 5.7,2013-03-03 16:35:00,
2013-03-03 09:40:00,33.7,23.9,30.00,North,-999,0.0,0.0,67,0.00,,,-99.99,228,WeatherLink 5.7,2013-03-03 16:40:00,
2013-03-03 09:50:00,34.3,23.7,30.00,North,-999,0.0,0.0,65,0.00,,,-99.99,156,WeatherLink 5.7,2013-03-03 16:50:00,
2013-03-03 09:55:00,34.6,24.0,30.00,North,-999,0.0,0.0,65,0.00,,,-99.99,166,WeatherLink 5.7,2013-03-03 16:55:00,
2013-03-03 10:00:00,34.9,24.3,30.00,North,-999,0.0,0.0,65,0.00,,,-99.99,172,WeatherLink 5.7,2013-03-03 17:00:00,
2013-03-03 10:10:00,35.2,23.9,29.99,ESE,112,0.0,2.0,63,0.00,,,-99.99,142,WeatherLink 5.7,2013-03-03 17:10:00,
2013-03-03 10:15:00,35.3,24.0,29.99,North,0,0.0,3.0,63,0.00,,,-99.99,173,WeatherLink 5.7,2013-03-03 17:15:00,
2013-03-03 10:20:00,35.5,23.8,29.98,North,0,2.0,4.0,62,0.00,,,-99.99,201,WeatherLink 5.7,2013-03-03 17:20:00,
2013-03-03 10:30:00,35.9,24.1,29.98,NW,315,1.0,4.0,62,0.00,,,-99.99,200,WeatherLink 5.7,2013-03-03 17:30:00,
2013-03-03 10:35:00,36.2,24.0,29.98,North,-999,0.0,0.0,61,0.00,,,-99.99,180,WeatherLink 5.7,2013-03-03 17:35:00,
2013-03-03 10:45:00,36.5,23.9,29.98,North,-999,0.0,0.0,60,0.00,,,-99.99,176,WeatherLink 5.7,2013-03-03 17:45:00,
2013-03-03 10:50:00,36.9,24.3,29.97,North,-999,0.0,0.0,60,0.00,,,-99.99,229,WeatherLink 5.7,2013-03-03 17:50:00,
2013-03-03 11:00:00,37.3,23.9,29.97,North,-999,0.0,0.0,58,0.00,,,-99.99,264,WeatherLink 5.7,2013-03-03 18:00:00,
2013-03-03 11:10:00,38.9,24.1,29.95,North,-999,0.0,0.0,55,0.00,,,-99.99,401,WeatherLink 5.7,2013-03-03 18:10:00,
2013-03-03 11:15:00,39.8,24.5,29.95,NW,315,0.0,2.0,54,0.00,,,-99.99,412,WeatherLink 5.7,2013-03-03 18:15:00,
2013-03-03 11:25:00,40.6,24.3,29.93,North,-999,0.0,0.0,52,0.00,,,-99.99,414,WeatherLink 5.7,2013-03-03 18:25:00,
2013-03-03 11:30:00,41.0,24.2,29.93,North,-999,0.0,0.0,51,0.00,,,-99.99,378,WeatherLink 5.7,2013-03-03 18:30:00,
2013-03-03 11:35:00,41.3,24.0,29.92,North,-999,0.0,0.0,50,0.00,,,-99.99,387,WeatherLink 5.7,2013-03-03 18:35:00,
2013-03-03 11:45:00,41.9,24.6,29.92,North,-999,0.0,0.0,50,0.00,,,-99.99,402,WeatherLink 5.7,2013-03-03 18:45:00,
2013-03-03 11:50:00,41.8,23.5,29.91,NW,315,0.0,2.0,48,0.00,,,-99.99,419,WeatherLink 5.7,2013-03-03 18:50:00,
2013-03-03 11:55:00,41.9,23.6,29.91,SSW,202,0.0,3.0,48,0.00,,,-99.99,394,WeatherLink 5.7,2013-03-03 18:55:00,
2013-03-03 12:00:00,42.3,23.5,29.91,South,180,0.0,1.0,47,0.00,,,-99.99,425,WeatherLink 5.7,2013-03-03 19:00:00,
2013-03-03 12:10:00,42.9,23.5,29.89,SSW,202,0.0,3.0,46,0.00,,,-99.99,430,WeatherLink 5.7,2013-03-03 19:10:00,
2013-03-03 12:20:00,44.0,24.0,29.88,NW,315,0.0,3.0,45,0.00,,,-99.99,420,WeatherLink 5.7,2013-03-03 19:20:00,
2013-03-03 12:25:00,44.8,24.7,29.88,NW,315,0.0,2.0,45,0.00,,,-99.99,413,WeatherLink 5.7,2013-03-03 19:25:00,
2013-03-03 12:35:00,46.2,24.9,29.85,NW,315,0.0,1.0,43,0.00,,,-99.99,300,WeatherLink 5.7,2013-03-03 19:35:00,
2013-03-03 12:40:00,47.4,23.0,29.85,NNW,337,2.0,7.0,38,0.00,,,-99.99,316,WeatherLink 5.7,2013-03-03 19:40:00,
2013-03-03 12:50:00,49.6,22.3,29.81,NNW,337,0.0,3.0,34,0.00,,,-99.99,449,WeatherLink 5.7,2013-03-03 19:50:00,
2013-03-03 13:00:00,50.1,22.8,29.81,NNW,337,3.0,7.0,34,0.00,,,-99.99,494,WeatherLink 5.7,2013-03-03 20:00:00,
2013-03-03 13:10:00,49.6,23.0,29.80,NNW,337,3.0,7.0,35,0.00,,,-99.99,544,WeatherLink 5.7,2013-03-03 20:10:00,
2013-03-03 13:20:00,49.6,24.4,29.78,NW,315,4.0,9.0,37,0.00,,,-99.99,533,WeatherLink 5.7,2013-03-03 20:20:00,
2013-03-03 13:25:00,49.5,24.3,29.78,NNW,337,4.0,11.0,37,0.00,,,-99.99,482,WeatherLink 5.7,2013-03-03 20:25:00,
2013-03-03 13:30:00,49.5,22.9,29.78,NNW,337,3.0,11.0,35,0.00,,,-99.99,422,WeatherLink 5.7,2013-03-03 20:30:00,
2013-03-03 13:40:00,49.8,22.5,29.77,North,0,4.0,10.0,34,0.00,,,-99.99,394,WeatherLink 5.7,2013-03-03 20:40:00,
2013-03-03 13:45:00,49.6,21.6,29.77,North,0,6.0,14.0,33,0.00,,,-99.99,345,WeatherLink 5.7,2013-03-03 20:45:00,
2013-03-03 13:50:00,49.6,22.3,29.77,North,0,3.0,13.0,34,0.00,,,-99.99,319,WeatherLink 5.7,2013-03-03 20:50:00,
2013-03-03 14:00:00,49.6,23.0,29.77,NNW,337,2.0,6.0,35,0.00,,,-99.99,281,WeatherLink 5.7,2013-03-03 21:00:00,
2013-03-03 14:10:00,49.5,22.3,29.77,NNW,337,0.0,3.0,34,0.00,,,-99.99,271,WeatherLink 5.7,2013-03-03 21:10:00,
2013-03-03 14:15:00,49.6,23.0,29.77,North,0,0.0,2.0,35,0.00,,,-99.99,275,WeatherLink 5.7,2013-03-03 21:15:00,
2013-03-03 14:25:00,49.6,23.0,29.77,NNW,337,2.0,7.0,35,0.00,,,-99.99,292,WeatherLink 5.7,2013-03-03 21:25:00,
2013-03-03 14:35:00,49.2,22.7,29.77,NNW,337,3.0,11.0,35,0.00,,,-99.99,254,WeatherLink 5.7,2013-03-03 21:35:00,
2013-03-03 14:40:00,49.1,22.6,29.77,NNW,337,4.0,11.0,35,0.00,,,-99.99,229,WeatherLink 5.7,2013-03-03 21:40:00,
2013-03-03 14:50:00,48.8,23.0,29.77,NNW,337,1.0,6.0,36,0.00,,,-99.99,201,WeatherLink 5.7,2013-03-03 21:50:00,
2013-03-03 14:55:00,48.8,22.3,29.77,NNW,337,1.0,6.0,35,0.00,,,-99.99,182,WeatherLink 5.7,2013-03-03 21:55:00,
2013-03-03 15:00:00,48.8,23.0,29.77,NNW,337,1.0,5.0,36,0.00,,,-99.99,215,WeatherLink 5.7,2013-03-03 22:00:00,
2013-03-03 15:10:00,49.1,23.3,29.77,NNW,337,2.0,9.0,36,0.00,,,-99.99,238,WeatherLink 5.7,2013-03-03 22:10:00,
2013-03-03 15:15:00,48.9,23.1,29.77,NNW,337,3.0,10.0,36,0.00,,,-99.99,181,WeatherLink 5.7,2013-03-03 22:15:00,
2013-03-03 15:20:00,48.8,23.6,29.78,NNW,337,1.0,4.0,37,0.00,,,-99.99,150,WeatherLink 5.7,2013-03-03 22:20:00,
2013-03-03 15:25:00,48.6,22.8,29.78,NNW,337,3.0,9.0,36,0.00,,,-99.99,146,WeatherLink 5.7,2013-03-03 22:25:00,
2013-03-03 15:35:00,48.5,24.0,29.78,NNW,337,2.0,7.0,38,0.00,,,-99.99,115,WeatherLink 5.7,2013-03-03 22:35:00,
2013-03-03 15:40:00,48.2,23.7,29.78,NNW,337,4.0,9.0,38,0.00,,,-99.99,97,WeatherLink 5.7,2013-03-03 22:40:00,
2013-03-03 15:45:00,48.0,23.6,29.78,NNW,337,4.0,7.0,38,0.00,,,-99.99,83,WeatherLink 5.7,2013-03-03 22:45:00,
2013-03-03 15:55:00,47.9,23.5,29.77,NW,315,2.0,5.0,38,0.00,,,-99.99,64,WeatherLink 5.7,2013-03-03 22:55:00,
2013-03-03 16:00:00,47.7,23.9,29.77,NW,315,1.0,4.0,39,0.00,,,-99.99,61,WeatherLink 5.7,2013-03-03 23:00:00,
2013-03-03 16:10:00,47.4,23.7,29.77,NW,315,0.0,1.0,39,0.00,,,-99.99,56,WeatherLink 5.7,2013-03-03 23:10:00,
2013-03-03 16:15:00,47.4,24.3,29.77,NW,315,0.0,3.0,40,0.00,,,-99.99,50,WeatherLink 5.7,2013-03-03 23:15:00,
2013-03-03 16:20:00,47.4,24.3,29.79,NW,315,0.0,1.0,40,0.00,,,-99.99,53,WeatherLink 5.7,2013-03-03 23:20:00,
2013-03-03 16:30:00,47.6,24.4,29.79,North,-999,0.0,0.0,40,0.00,,,-99.99,39,WeatherLink 5.7,2013-03-03 23:30:00,
2013-03-03 16:35:00,47.4,24.3,29.79,NW,315,0.0,3.0,40,0.00,,,-99.99,35,WeatherLink 5.7,2013-03-03 23:35:00,
2013-03-03 16:45:00,47.1,25.2,29.79,NNW,337,0.0,4.0,42,0.00,,,-99.99,29,WeatherLink 5.7,2013-03-03 23:45:00,
2013-03-03 16:50:00,47.0,26.7,29.79,NW,315,0.0,5.0,45,0.00,,,-99.99,30,WeatherLink 5.7,2013-03-03 23:50:00,
2013-03-03 17:00:00,46.7,26.5,29.79,NNW,337,1.0,4.0,45,0.00,,,-99.99,30,WeatherLink 5.7,2013-03-04 00:00:00,
2013-03-03 17:10:00,46.5,27.3,29.79,NNW,337,1.0,6.0,47,0.00,,,-99.99,24,WeatherLink 5.7,2013-03-04 00:10:00,
2013-03-03 17:15:00,46.4,27.8,29.79,North,0,0.0,3.0,48,0.00,,,-99.99,15,WeatherLink 5.7,2013-03-04 00:15:00,
2013-03-03 17:20:00,46.1,28.0,29.79,North,0,0.0,2.0,49,0.00,,,-99.99,11,WeatherLink 5.7,2013-03-04 00:20:00,
2013-03-03 17:25:00,45.9,27.3,29.79,North,0,0.0,1.0,48,0.00,,,-99.99,10,WeatherLink 5.7,2013-03-04 00:25:00,
2013-03-03 17:30:00,45.9,27.8,29.79,North,0,0.0,1.0,49,0.00,,,-99.99,10,WeatherLink 5.7,2013-03-04 00:30:00,
2013-03-03 17:35:00,45.5,27.4,29.79,South,180,1.0,8.0,49,0.00,,,-99.99,9,WeatherLink 5.7,2013-03-04 00:35:00,
2013-03-03 17:45:00,44.6,30.3,29.79,NNW,337,3.0,11.0,57,0.00,,,-99.99,5,WeatherLink 5.7,2013-03-04 00:45:00,
2013-03-03 17:50:00,44.2,31.2,29.82,NNW,337,1.0,6.0,60,0.00,,,-99.99,1,WeatherLink 5.7,2013-03-04 00:50:00,
2013-03-03 17:55:00,43.5,31.7,29.82,NNW,337,1.0,5.0,63,0.00,,,-99.99,0,WeatherLink 5.7,2013-03-04 00:55:00,
2013-03-03 18:00:00,43.0,32.0,29.82,NNW,337,1.0,5.0,65,0.00,,,-99.99,0,WeatherLink 5.7,2013-03-04 01:00:00,
2013-03-03 18:10:00,42.5,32.3,29.83,North,-999,0.0,0.0,67,0.00,,,-99.99,0,WeatherLink 5.7,2013-03-04 01:10:00,
2013-03-03 18:15:00,42.2,32.4,29.83,NW,315,0.0,1.0,68,0.00,,,-99.99,0,WeatherLink 5.7,2013-03-04 01:15:00,
2013-03-03 18:25:00,41.8,33.1,29.83,NW,315,0.0,1.0,71,0.00,,,-99.99,0,WeatherLink 5.7,2013-03-04 01:25:00,
2013-03-03 18:30:00,41.3,33.0,29.83,NW,315,0.0,1.0,72,0.00,,,-99.99,0,WeatherLink 5.7,2013-03-04 01:30:00,
2013-03-03 18:40:00,40.9,32.9,29.85,North,-999,0.0,0.0,73,0.00,,,-99.99,0,WeatherLink 5.7,2013-03-04 01:40:00,
2013-03-03 18:50:00,40.6,32.6,29.85,ESE,112,0.0,3.0,73,0.00,,,-99.99,0,WeatherLink 5.7,2013-03-04 01:50:00,
2013-03-03 18:55:00,40.6,33.0,29.85,ESE,112,0.0,3.0,74,0.00,,,-99.99,0,WeatherLink 5.7,2013-03-04 01:55:00,
2013-03-03 19:00:00,40.5,33.2,29.85,ESE,112,0.0,2.0,75,0.00,,,-99.99,0,WeatherLink 5.7,2013-03-04 02:00:00,
2013-03-03 19:10:00,40.3,33.3,29.84,ESE,112,0.0,2.0,76,0.01,,,-99.99,0,WeatherLink 5.7,2013-03-04 02:10:00,
2013-03-03 19:15:00,40.2,33.2,29.84,North,-999,0.0,0.0,76,0.01,,,-99.99,0,WeatherLink 5.7,2013-03-04 02:15:00,
2013-03-03 19:25:00,40.0,33.4,29.85,North,-999,0.0,0.0,77,0.01,,,-99.99,0,WeatherLink 5.7,2013-03-04 02:25:00,
2013-03-03 19:35:00,39.6,33.6,29.85,North,-999,0.0,0.0,79,0.01,,,-99.99,0,WeatherLink 5.7,2013-03-04 02:35:00,
2013-03-03 19:45:00,39.3,33.6,29.85,North,-999,0.0,0.0,80,0.01,,,-99.99,0,WeatherLink 5.7,2013-03-04 02:45:00,
2013-03-03 19:50:00,39.2,33.9,29.86,North,-999,0.0,0.0,81,0.01,,,-99.99,0,WeatherLink 5.7,2013-03-04 02:50:00,
2013-03-03 20:00:00,38.9,33.9,29.86,North,-999,0.0,0.0,82,0.02,,,-99.99,0,WeatherLink 5.7,2013-03-04 03:00:00,
2013-03-03 20:10:00,38.6,33.9,29.85,North,-999,0.0,0.0,83,0.02,,,-99.99,0,WeatherLink 5.7,2013-03-04 03:10:00,
2013-03-03 20:15:00,38.5,34.1,29.85,ESE,112,1.0,4.0,84,0.02,,,-99.99,0,WeatherLink 5.7,2013-03-04 03:15:00,
2013-03-03 20:20:00,38.3,34.2,29.83,NW,315,1.0,3.0,85,0.03,,,-99.99,0,WeatherLink 5.7,2013-03-04 03:20:00,
2013-03-03 20:30:00,37.9,34.1,29.83,NW,315,0.0,3.0,86,0.04,,,-99.99,0,WeatherLink 5.7,2013-03-04 03:30:00,
2013-03-03 20:35:00,37.7,33.9,29.83,North,-999,0.0,0.0,86,0.04,,,-99.99,0,WeatherLink 5.7,2013-03-04 03:35:00,
2013-03-03 20:40:00,37.6,33.8,29.83,North,-999,0.0,0.0,86,0.05,,,-99.99,0,WeatherLink 5.7,2013-03-04 03:40:00,
2013-03-03 20:50:00,37.2,33.4,29.84,North,-999,0.0,0.0,86,0.06,,,-99.99,0,WeatherLink 5.7,2013-03-04 03:50:00,
2013-03-03 20:55:00,37.0,33.2,29.84,North,-999,0.0,0.0,86,0.05,,,-99.99,0,WeatherLink 5.7,2013-03-04 03:55:00,
2013-03-03 21:00:00,36.9,33.1,29.84,North,-999,0.0,0.0,86,0.06,,,-99.99,0,WeatherLink 5.7,2013-03-04 04:00:00,
2013-03-03 21:10:00,36.7,33.2,29.84,North,-999,0.0,0.0,87,0.05,,,-99.99,0,WeatherLink 5.7,2013-03-04 04:10:00,
2013-03-03 21:15:00,36.6,33.1,29.84,North,-999,0.0,0.0,87,0.06,,,-99.99,0,WeatherLink 5.7,2013-03-04 04:15:00,
2013-03-03 21:20:00,36.3,32.8,29.83,North,-999,0.0,0.0,87,0.06,,,-99.99,0,WeatherLink 5.7,2013-03-04 04:20:00,
2013-03-03 21:30:00,36.2,32.7,29.83,North,-999,0.0,0.0,87,0.06,,,-99.99,0,WeatherLink 5.7,2013-03-04 04:30:00,
2013-03-03 21:35:00,36.0,32.5,29.83,North,-999,0.0,0.0,87,0.06,,,-99.99,0,WeatherLink 5.7,2013-03-04 04:35:00,
2013-03-03 21:45:00,35.7,32.2,29.83,North,-999,0.0,0.0,87,0.07,,,-99.99,0,WeatherLink 5.7,2013-03-04 04:45:00,
2013-03-03 21:50:00,35.6,32.1,29.83,North,-999,0.0,0.0,87,0.07,,,-99.99,0,WeatherLink 5.7,2013-03-04 04:50:00,
2013-03-03 21:55:00,35.5,32.0,29.83,North,-999,0.0,0.0,87,0.07,,,-99.99,0,WeatherLink 5.7,2013-03-04 04:55:00,
2013-03-03 22:00:00,35.2,31.7,29.83,North,-999,0.0,0.0,87,0.07,,,-99.99,0,WeatherLink 5.7,2013-03-04 05:00:00,
2013-03-03 22:05:00,34.9,31.4,29.83,North,-999,0.0,0.0,87,0.07,,,-99.99,0,WeatherLink 5.7,2013-03-04 05:05:00,
2013-03-03 22:10:00,34.6,31.1,29.83,NW,315,0.0,1.0,87,0.08,,,-99.99,0,WeatherLink 5.7,2013-03-04 05:10:00,
2013-03-03 22:20:00,33.8,30.6,29.81,North,-999,0.0,0.0,88,0.07,,,-99.99,0,WeatherLink 5.7,2013-03-04 05:20:00,
2013-03-03 22:25:00,33.5,30.3,29.81,NW,315,1.0,3.0,88,0.07,,,-99.99,0,WeatherLink 5.7,2013-03-04 05:25:00,
2013-03-03 22:35:00,32.9,29.7,29.82,NW,315,2.0,4.0,88,0.06,,,-99.99,0,WeatherLink 5.7,2013-03-04 05:35:00,
2013-03-03 22:40:00,32.8,29.9,29.82,NW,315,0.0,1.0,89,0.06,,,-99.99,0,WeatherLink 5.7,2013-03-04 05:40:00,
2013-03-03 22:50:00,32.6,29.7,29.82,NNW,337,0.0,3.0,89,0.04,,,-99.99,0,WeatherLink 5.7,2013-03-04 05:50:00,
2013-03-03 23:00:00,32.5,29.6,29.82,NW,315,0.0,2.0,89,0.03,,,-99.99,0,WeatherLink 5.7,2013-03-04 06:00:00,
2013-03-03 23:10:00,32.5,29.6,29.81,NW,315,0.0,2.0,89,0.03,,,-99.99,0,WeatherLink 5.7,2013-03-04 06:10:00,
2013-03-03 23:15:00,32.5,29.6,29.81,NW,315,0.0,1.0,89,0.03,,,-99.99,0,WeatherLink 5.7,2013-03-04 06:15:00,
2013-03-03 23:20:00,32.5,29.6,29.76,NW,315,0.0,1.0,89,0.02,,,-99.99,0,WeatherLink 5.7,2013-03-04 06:20:00,
2013-03-03 23:30:00,32.4,29.5,29.76,North,-999,0.0,0.0,89,0.02,,,-99.99,0,WeatherLink 5.7,2013-03-04 06:30:00,
2013-03-03 23:35:00,32.4,29.5,29.78,North,-999,0.0,0.0,89,0.02,,,-99.99,0,WeatherLink 5.7,2013-03-04 06:35:00,
2013-03-03 23:45:00,32.4,29.8,29.78,North,-999,0.0,0.0,90,0.02,,,-99.99,0,WeatherLink 5.7,2013-03-04 06:45:00,
2013-03-03 23:50:00,32.4,29.8,29.77,North,-999,0.0,0.0,90,0.02,,,-99.99,0,WeatherLink 5.7,2013-03-04 06:50:00,
2013-03-03 23:55:00,32.5,29.9,29.77,North,-999,0.0,0.0,90,0.02,,,-99.99,0,WeatherLink 5.7,2013-03-04 06:55:00,